Time;durP1;ratioP1;P1;durP2;ratioP2;P2;SDS_P1;SDS_P2;PMS_P1;PMS_P2;Temp;Humidity;BMP_temperature;BMP_pressure;BME280_temperature;BME280_humidity;BME280_pressure;Samples;Min_cycle;Max_cycle;Signal;HPM_P1;HPM_P2
2022/11/09 00:00:15;;;;;;;9.97;6.33;;;;;;;13.53;54.00;99272.84;10435453;28;20236;-69
2022/11/09 00:05:17;;;;;;;9.87;6.83;;;;;;;13.77;53.28;99275.78;10425999;28;20228;-69
2022/11/09 00:10:18;;;;;;;9.93;6.67;;;;;;;14.72;51.76;99261.25;10435900;28;20243;-72
2022/11/09 00:15:20;;;;;;;10.27;7.30;;;;;;;12.40;56.99;99397.47;10446681;28;20286;-71
2022/11/09 00:20:21;;;;;;;9.97;7.50;;;;;;;12.44;56.46;99385.28;10437398;28;20239;-71
2022/11/09 00:25:23;;;;;;;10.87;6.90;;;;;;;13.77;55.09;99314.22;10443946;28;20285;-69
2022/11/09 00:30:26;;;;;;;10.67;6.73;;;;;;;12.29;56.94;99384.66;10441939;28;20644;-68
2022/11/09 00:35:28;;;;;;;11.27;7.60;;;;;;;13.73;55.33;99288.00;10437394;28;20239;-70
2022/11/09 00:40:29;;;;;;;9.37;7.70;;;;;;;13.06;55.96;99374.28;10435174;28;20290;-71
2022/11/09 00:45:31;;;;;;;9.03;7.13;;;;;;;14.78;53.08;99293.50;10436326;28;20244;-71
2022/11/09 00:50:32;;;;;;;10.57;7.00;;;;;;;15.66;51.37;99293.28;10438552;28;20277;-69
2022/11/09 00:55:34;;;;;;;9.07;7.53;;;;;;;15.13;51.99;99306.41;10441090;28;20246;-68
2022/11/09 01:00:36;;;;;;;8.23;7.17;;;;;;;15.49;51.53;99311.94;10441510;28;20236;-71
2022/11/09 01:05:40;;;;;;;8.73;7.37;;;;;;;15.50;51.27;99319.81;10434629;28;20613;-71
2022/11/09 01:10:45;;;;;;;10.60;7.63;;;;;;;14.48;54.33;99323.00;10437034;28;20751;-71
2022/11/09 01:15:50;;;;;;;8.60;7.10;;;;;;;13.77;55.69;99402.97;10433087;28;20231;-72
2022/11/09 01:20:51;;;;;;;9.10;7.53;;;;;;;14.35;54.15;99323.13;10438958;28;20228;-71
2022/11/09 01:25:58;;;;;;;12.00;8.20;;;;;;;13.45;57.06;99392.16;10435544;28;20742;-69
2022/11/09 01:31:02;;;;;;;9.20;7.93;;;;;;;13.01;57.29;99423.25;10437347;28;20236;-68
2022/11/09 01:36:12;;;;;;;10.83;8.60;;;;;;;13.57;56.28;99368.13;10433130;28;20261;-71
2022/11/09 01:41:25;;;;;;;10.30;8.40;;;;;;;13.56;56.33;99374.53;10435323;28;20294;-69
2022/11/09 01:46:34;;;;;;;10.53;8.43;;;;;;;13.52;56.42;99402.06;10435105;28;20228;-71
2022/11/09 01:51:44;;;;;;;13.93;9.53;;;;;;;12.94;58.22;99398.28;10436601;28;20236;-71
2022/11/09 01:56:50;;;;;;;11.73;8.93;;;;;;;11.96;61.31;99412.22;10432403;28;20236;-70
2022/11/09 02:01:52;;;;;;;10.97;8.33;;;;;;;13.02;58.26;99330.88;10439699;28;20285;-71
2022/11/09 02:06:57;;;;;;;12.03;7.33;;;;;;;12.80;59.22;99369.78;10438075;28;20254;-71
2022/11/09 02:11:59;;;;;;;14.70;7.67;;;;;;;11.43;62.58;99405.63;10440216;28;20204;-68
2022/11/09 02:17:01;;;;;;;12.73;8.00;;;;;;;11.89;61.99;99373.88;10441116;28;20235;-71
2022/11/09 02:22:04;;;;;;;10.13;8.10;;;;;;;11.52;61.87;99400.09;10439279;28;20212;-68
2022/11/09 02:27:06;;;;;;;10.43;8.30;;;;;;;12.44;61.36;99312.00;10427951;28;20243;-69
2022/11/09 02:32:25;;;;;;;10.97;7.67;;;;;;;12.67;59.87;99359.88;10435493;28;20208;-69
2022/11/09 02:37:34;;;;;;;9.83;7.53;;;;;;;12.89;58.83;99331.78;10436249;28;20243;-69
2022/11/09 02:42:37;;;;;;;8.37;7.53;;;;;;;10.81;63.29;99401.16;10429609;28;20239;-71
2022/11/09 02:47:38;;;;;;;9.60;7.37;;;;;;;11.54;62.46;99382.81;10429393;28;20267;-70
2022/11/09 02:52:40;;;;;;;12.47;6.87;;;;;;;11.93;61.19;99364.38;10438340;28;20227;-70
2022/11/09 02:57:41;;;;;;;10.27;7.40;;;;;;;12.74;59.50;99307.84;10432137;28;20235;-69
2022/11/09 03:02:43;;;;;;;11.53;7.03;;;;;;;12.39;60.58;99311.81;10438844;28;20282;-69
2022/11/09 03:07:45;;;;;;;9.50;7.07;;;;;;;12.37;60.77;99318.19;10432350;28;20231;-79
2022/11/09 03:12:46;;;;;;;8.27;6.67;;;;;;;12.35;59.74;99330.16;10433970;28;20240;-73
2022/11/09 03:17:48;;;;;;;10.73;7.00;;;;;;;12.79;59.73;99323.31;10429577;28;20236;-73
2022/11/09 03:22:50;;;;;;;9.50;6.77;;;;;;;13.10;59.05;99324.47;10429922;28;20219;-73
2022/11/09 03:28:01;;;;;;;9.97;6.70;;;;;;;12.74;59.33;99336.56;10430588;28;20772;-73
2022/11/09 03:33:08;;;;;;;8.57;6.00;;;;;;;12.98;59.00;99335.03;10434844;28;20723;-72
2022/11/09 03:38:12;;;;;;;10.17;5.97;;;;;;;12.40;60.72;99376.00;10429348;28;20258;-74
2022/11/09 03:43:13;;;;;;;6.33;5.37;;;;;;;12.50;60.60;99364.84;10433130;28;20228;-76
2022/11/09 03:48:15;;;;;;;6.90;5.20;;;;;;;12.68;60.94;99350.81;10434396;28;20586;-73
2022/11/09 03:53:17;;;;;;;6.47;5.47;;;;;;;12.12;61.84;99384.22;10438561;28;20232;-76
2022/11/09 03:58:19;;;;;;;6.73;5.13;;;;;;;12.59;61.85;99352.03;10443976;28;20235;-74
2022/11/09 04:03:21;;;;;;;6.23;4.93;;;;;;;12.64;61.45;99377.25;10439044;28;20504;-74
2022/11/09 04:08:23;;;;;;;6.73;5.33;;;;;;;12.42;62.35;99368.56;10440347;28;20736;-73
2022/11/09 04:13:24;;;;;;;6.47;4.37;;;;;;;12.47;62.20;99389.41;10447936;28;20220;-71
2022/11/09 04:18:27;;;;;;;5.93;4.93;;;;;;;12.24;62.28;99384.44;10448386;28;20874;-75
2022/11/09 04:23:28;;;;;;;9.20;5.13;;;;;;;12.88;61.45;99378.44;10447943;28;20995;-74
2022/11/09 04:28:30;;;;;;;5.43;4.57;;;;;;;12.48;62.44;99367.75;10437869;28;20881;-76
2022/11/09 04:33:33;;;;;;;3.73;3.40;;;;;;;12.51;62.85;99382.63;10432856;28;20594;-72
2022/11/09 04:38:35;;;;;;;4.37;3.53;;;;;;;12.87;61.86;99381.34;10439489;28;20297;-76
2022/11/09 04:43:37;;;;;;;4.37;3.20;;;;;;;12.81;62.32;99361.53;10444433;28;20243;-73
2022/11/09 04:48:38;;;;;;;3.73;3.00;;;;;;;13.45;61.18;99375.22;10439101;28;20228;-73
2022/11/09 04:53:40;;;;;;;4.00;3.20;;;;;;;14.37;59.34;99374.88;10440925;28;20311;-73
2022/11/09 04:58:42;;;;;;;4.80;3.10;;;;;;;14.02;59.76;99357.31;10440779;28;20239;-75
2022/11/09 05:03:44;;;;;;;5.07;2.90;;;;;;;14.41;58.63;99381.47;10454074;28;20304;-72
2022/11/09 05:08:45;;;;;;;3.30;2.93;;;;;;;15.07;56.45;99396.22;10510897;28;20312;-74
2022/11/09 05:13:47;;;;;;;3.20;2.70;;;;;;;14.95;56.93;99414.97;10393371;28;20235;-73
2022/11/09 05:18:50;;;;;;;3.23;2.90;;;;;;;13.52;59.02;99429.75;10144345;28;20238;-72
2022/11/09 05:23:57;;;;;;;5.03;3.03;;;;;;;12.39;61.71;99496.94;9862246;29;20249;-74
2022/11/09 05:29:13;;;;;;;5.10;3.20;;;;;;;13.48;61.03;99412.41;8868248;30;15597483;-74
2022/11/09 05:34:29;;;;;;;4.83;3.30;;;;;;;12.81;61.41;99471.59;9170465;32;20251;-72
2022/11/09 05:39:45;;;;;;;5.50;4.50;;;;;;;13.85;60.03;99432.31;9166084;32;20283;-75
2022/11/09 05:45:01;;;;;;;6.47;3.73;;;;;;;14.42;57.40;99426.19;9152052;32;21223;-72
2022/11/09 05:50:17;;;;;;;3.07;2.00;;;;;;;13.44;57.25;99454.19;9162798;32;20246;-75
2022/11/09 05:55:33;;;;;;;2.40;2.20;;;;;;;13.72;56.47;99471.88;9155030;32;20263;-72
2022/11/09 06:00:48;;;;;;;3.63;2.10;;;;;;;13.33;57.38;99487.06;9151421;32;20255;-73
2022/11/09 06:06:06;;;;;;;2.50;2.30;;;;;;;14.69;54.32;99488.72;9152210;32;20291;-73
2022/11/09 06:11:22;;;;;;;2.47;2.17;;;;;;;12.61;57.74;99525.28;9150527;32;20251;-74
2022/11/09 06:16:38;;;;;;;1.60;1.50;;;;;;;14.11;56.24;99462.00;9157757;32;20255;-74
2022/11/09 06:21:54;;;;;;;1.80;1.70;;;;;;;14.45;54.62;99494.91;9150936;32;20673;-73
2022/11/09 06:27:09;;;;;;;2.03;1.80;;;;;;;13.43;56.71;99474.88;8636798;31;15422876;-74
2022/11/09 06:32:11;;;;;;;2.57;1.80;;;;;;;13.10;58.67;99454.22;9382442;31;20240;-73
2022/11/09 06:37:15;;;;;;;3.37;1.70;;;;;;;12.31;59.89;99503.31;9414553;31;20253;-74
2022/11/09 06:42:17;;;;;;;2.43;1.73;;;;;;;12.09;60.59;99513.34;9434626;31;20605;-73
2022/11/09 06:47:19;;;;;;;2.27;2.10;;;;;;;12.75;59.30;99477.78;9432879;31;20261;-75
2022/11/09 06:52:21;;;;;;;1.83;1.70;;;;;;;12.42;59.47;99486.63;9434778;31;20458;-73
2022/11/09 06:57:22;;;;;;;4.17;2.90;;;;;;;11.79;61.61;99537.75;9422216;31;20242;-72
2022/11/09 07:02:24;;;;;;;2.30;2.10;;;;;;;11.54;62.19;99557.00;9419998;31;20230;-73
2022/11/09 07:07:26;;;;;;;1.93;1.70;;;;;;;11.99;60.51;99540.53;9419203;31;20260;-75
2022/11/09 07:12:29;;;;;;;1.80;1.60;;;;;;;12.12;61.05;99529.06;9416523;31;20226;-73
2022/11/09 07:17:32;;;;;;;2.07;1.93;;;;;;;12.73;59.83;99507.53;9412086;31;20242;-76
2022/11/09 07:22:38;;;;;;;4.40;3.17;;;;;;;11.88;61.95;99517.81;9420620;31;20234;-73
2022/11/09 07:27:39;;;;;;;3.13;2.90;;;;;;;12.28;61.36;99476.88;9601578;30;20336;-75
2022/11/09 07:32:42;;;;;;;3.30;3.00;;;;;;;12.97;60.03;99482.97;9861181;29;20229;-73
2022/11/09 07:38:03;;;;;;;3.47;3.10;;;;;;;13.58;59.37;99488.06;9877592;29;20312;-74
2022/11/09 07:43:06;;;;;;;4.80;3.80;;;;;;;12.63;62.22;99506.28;9880972;29;20213;-75
2022/11/09 07:48:10;;;;;;;5.90;4.20;;;;;;;12.09;63.05;99519.53;9877972;29;20265;-74
2022/11/09 07:53:13;;;;;;;4.77;3.67;;;;;;;12.06;63.16;99527.97;9879755;29;20221;-74
2022/11/09 07:58:15;;;;;;;4.83;3.80;;;;;;;12.92;60.95;99503.22;9878161;29;20233;-74
2022/11/09 08:03:18;;;;;;;4.47;3.20;;;;;;;13.12;60.99;99518.47;9879857;29;20248;-73
2022/11/09 08:08:20;;;;;;;4.30;3.57;;;;;;;13.17;60.86;99526.75;9876075;29;20241;-74
2022/11/09 08:13:22;;;;;;;3.70;3.40;;;;;;;13.74;60.67;99528.97;9873836;29;20745;-74
2022/11/09 08:18:24;;;;;;;3.90;3.20;;;;;;;13.38;59.99;99527.56;9880278;29;20247;-73
2022/11/09 08:23:25;;;;;;;4.63;3.20;;;;;;;13.53;59.51;99530.88;9872031;29;20234;-73
2022/11/09 08:28:27;;;;;;;3.17;2.87;;;;;;;14.05;59.35;99538.97;9747911;29;1142623;-73
2022/11/09 08:33:32;;;;;;;5.90;3.10;;;;;;;13.43;60.05;99534.00;9857985;29;20225;-77
2022/11/09 08:38:34;;;;;;;2.80;2.47;;;;;;;14.68;57.52;99538.25;9842263;30;20242;-73
2022/11/09 08:43:36;;;;;;;3.00;2.70;;;;;;;14.73;57.24;99521.44;9839385;30;20267;-74
2022/11/09 08:48:38;;;;;;;3.50;2.87;;;;;;;15.17;56.74;99529.59;9838089;30;20604;-74
2022/11/09 08:53:39;;;;;;;3.00;2.37;;;;;;;15.31;56.46;99533.84;9840029;30;20218;-76
2022/11/09 08:58:41;;;;;;;3.33;2.93;;;;;;;13.63;59.87;99543.88;9840016;29;20242;-74
2022/11/09 09:03:43;;;;;;;2.83;2.37;;;;;;;12.50;61.13;99547.34;9843110;30;20217;-72
2022/11/09 11:06:22;;;;;;;3.90;2.87;;;;;;;13.95;61.23;99512.53;10503440;27;21395;-68
2022/11/09 11:11:29;;;;;;;9.70;4.00;;;;;;;14.70;59.32;99505.72;10446856;28;20230;-68
2022/11/09 11:16:38;;;;;;;4.70;3.03;;;;;;;13.43;61.52;99558.19;10463667;28;20243;-68
2022/11/09 11:21:39;;;;;;;3.20;2.80;;;;;;;14.17;59.82;99496.09;10453690;28;20286;-68
2022/11/09 11:26:58;;;;;;;5.53;2.80;;;;;;;14.33;60.06;99508.25;10451844;28;20728;-67
2022/11/09 11:31:59;;;;;;;3.87;3.00;;;;;;;14.86;58.98;99501.69;10442937;28;20222;-68
2022/11/09 11:37:07;;;;;;;5.87;3.60;;;;;;;14.57;59.72;99506.63;10440067;28;20271;-67
2022/11/09 11:42:47;;;;;;;7.07;3.67;;;;;;;15.50;58.47;99502.31;10444398;28;20228;-68
2022/11/09 11:48:04;;;;;;;5.87;3.83;;;;;;;14.92;58.86;99498.94;10391946;28;20260;-68
2022/11/09 11:53:36;;;;;;;6.23;3.90;;;;;;;15.12;58.69;99503.34;10435764;28;20711;-68
2022/11/09 11:59:22;;;;;;;5.40;3.90;;;;;;;15.56;58.06;99506.03;10438075;28;20238;-68
2022/11/09 12:04:42;;;;;;;5.87;4.17;;;;;;;15.46;58.18;99499.25;10423907;28;20713;-68
2022/11/09 12:09:53;;;;;;;6.63;3.93;;;;;;;14.90;59.18;99492.13;10440105;28;20778;-68
2022/11/09 12:15:16;;;;;;;6.20;4.00;;;;;;;15.67;57.96;99497.19;10437469;28;20224;-68
2022/11/09 12:20:23;;;;;;;5.77;4.00;;;;;;;15.43;58.17;99494.31;10417318;28;20228;-68
2022/11/09 12:25:41;;;;;;;5.23;3.63;;;;;;;15.24;58.24;99487.25;10417071;28;20233;-68
2022/11/09 12:31:05;;;;;;;8.73;5.30;;;;;;;16.08;56.64;99498.34;10412900;28;20777;-67
2022/11/09 12:36:17;;;;;;;6.07;4.83;;;;;;;14.89;58.81;99498.56;10415852;28;20289;-68
2022/11/09 12:41:22;;;;;;;5.57;3.97;;;;;;;15.26;58.41;99480.59;10409239;28;20838;-68
2022/11/09 12:46:31;;;;;;;6.53;4.13;;;;;;;15.37;57.98;99475.50;10417378;28;20255;-68
2022/11/09 12:51:33;;;;;;;8.43;4.80;;;;;;;15.87;57.79;99497.75;10425536;28;20236;-66
2022/11/09 12:56:47;;;;;;;7.90;4.70;;;;;;;15.57;57.82;99496.88;10415371;28;20747;-69
2022/11/09 13:01:57;;;;;;;8.13;6.13;;;;;;;14.85;58.91;99505.44;10416937;28;20839;-68
2022/11/09 13:07:07;;;;;;;8.17;6.33;;;;;;;16.14;57.54;99504.72;10415149;28;20248;-68
2022/11/09 13:12:18;;;;;;;12.43;7.63;;;;;;;15.84;57.93;99492.00;10412079;28;20232;-68
2022/11/09 13:17:25;;;;;;;6.83;5.30;;;;;;;16.11;57.04;99483.56;10409990;28;20724;-69
2022/11/09 13:22:27;;;;;;;7.30;5.53;;;;;;;15.87;57.19;99486.97;10412970;28;20759;-69
2022/11/09 13:27:31;;;;;;;6.87;5.17;;;;;;;16.06;57.44;99492.34;10412150;28;20961;-69
2022/11/09 13:32:33;;;;;;;6.27;4.70;;;;;;;15.80;57.93;99504.31;10404761;28;20236;-67
2022/11/09 13:37:34;;;;;;;6.10;5.40;;;;;;;14.64;59.81;99520.88;10416941;28;20247;-67
2022/11/09 13:42:36;;;;;;;5.43;4.70;;;;;;;15.24;58.64;99498.84;10418462;28;20320;-69
2022/11/09 13:47:38;;;;;;;8.70;4.93;;;;;;;15.58;58.52;99488.56;10409700;28;20240;-69
2022/11/09 13:52:48;;;;;;;5.37;4.50;;;;;;;14.89;59.99;99507.44;10409903;28;20240;-67
2022/11/09 13:57:53;;;;;;;6.50;4.63;;;;;;;15.47;58.77;99482.03;10408991;28;20615;-69
2022/11/09 14:03:23;;;;;;;5.83;4.30;;;;;;;13.98;60.74;99530.91;10422532;28;20235;-67
2022/11/09 14:08:28;;;;;;;6.20;4.13;;;;;;;14.47;60.61;99525.94;10409509;28;20248;-68
2022/11/09 14:13:48;;;;;;;5.90;3.60;;;;;;;13.37;62.63;99568.94;10407678;28;20291;-68
2022/11/09 14:19:08;;;;;;;4.47;3.70;;;;;;;15.94;57.26;99508.47;10413737;28;20735;-68
2022/11/09 14:24:28;;;;;;;4.73;4.20;;;;;;;15.26;59.80;99515.63;10408924;28;20238;-68
2022/11/09 14:29:32;;;;;;;5.30;4.20;;;;;;;14.78;60.72;99519.75;10410561;28;20744;-69
2022/11/09 14:34:33;;;;;;;6.77;4.60;;;;;;;15.45;59.41;99510.25;10409928;28;20260;-66
2022/11/09 14:39:36;;;;;;;5.00;4.10;;;;;;;15.37;59.05;99503.31;10406831;28;20258;-69
2022/11/09 14:44:45;;;;;;;6.00;4.63;;;;;;;15.20;59.27;99548.03;10409716;28;20239;-69
2022/11/09 14:49:48;;;;;;;7.27;4.90;;;;;;;15.39;59.00;99527.34;10411025;28;20231;-68
2022/11/09 14:54:51;;;;;;;5.03;4.40;;;;;;;16.28;57.50;99532.38;10429686;28;20255;-68
2022/11/09 14:59:54;;;;;;;8.00;5.43;;;;;;;15.04;59.97;99515.22;10398341;28;21052;-67
2022/11/09 15:05:00;;;;;;;6.23;4.40;;;;;;;14.16;62.26;99546.41;10410415;28;20617;-71
2022/11/09 15:10:06;;;;;;;7.83;5.13;;;;;;;14.09;61.90;99540.25;10408666;28;20331;-68
2022/11/09 15:15:19;;;;;;;6.83;4.83;;;;;;;14.84;60.89;99514.56;10415712;28;20231;-67
2022/11/09 15:20:25;;;;;;;6.63;5.07;;;;;;;14.23;62.71;99546.38;10410525;28;20228;-69
2022/11/09 15:25:43;;;;;;;8.43;5.30;;;;;;;15.43;59.62;99505.09;10403978;28;20236;-67
2022/11/09 15:30:53;;;;;;;7.87;5.30;;;;;;;15.83;58.49;99531.66;10419863;28;20295;-66
2022/11/09 15:36:00;;;;;;;7.77;5.13;;;;;;;15.69;58.57;99522.09;10400385;28;20236;-69
2022/11/09 15:41:08;;;;;;;5.57;4.73;;;;;;;14.53;61.17;99519.72;10406300;28;20232;-69
2022/11/09 15:46:14;;;;;;;6.53;4.50;;;;;;;14.77;61.79;99501.91;10403795;28;20256;-66
2022/11/09 15:51:17;;;;;;;7.77;5.00;;;;;;;14.85;59.74;99521.59;10404599;28;20236;-67
2022/11/09 15:56:22;;;;;;;13.80;11.73;;;;;;;13.98;62.37;99552.44;10411453;28;20623;-70
2022/11/09 16:01:24;;;;;;;7.53;5.23;;;;;;;15.16;59.18;99522.59;10409637;28;20224;-68
2022/11/09 16:06:26;;;;;;;7.60;4.70;;;;;;;14.69;60.42;99528.31;10408643;28;20252;-67
2022/11/09 16:11:28;;;;;;;8.47;5.73;;;;;;;15.05;60.39;99546.50;10410106;28;20330;-67
2022/11/09 16:16:29;;;;;;;5.30;4.47;;;;;;;14.29;62.05;99588.59;10412567;28;20310;-67
2022/11/09 16:21:31;;;;;;;6.80;4.83;;;;;;;14.45;60.39;99571.13;10417056;28;20229;-69
2022/11/09 16:26:33;;;;;;;7.90;5.93;;;;;;;15.61;57.60;99571.75;10412040;28;20240;-69
2022/11/09 16:31:35;;;;;;;10.13;6.90;;;;;;;16.02;57.00;99602.63;10415649;28;20649;-73
2022/11/09 16:36:53;;;;;;;7.43;6.27;;;;;;;14.34;60.94;99641.75;10408557;28;20260;-69
2022/11/09 16:42:00;;;;;;;7.20;5.83;;;;;;;15.20;59.11;99589.31;10408717;28;20246;-70
2022/11/09 16:47:04;;;;;;;8.80;7.10;;;;;;;14.79;60.35;99620.22;10415781;28;20231;-71
2022/11/09 16:52:06;;;;;;;11.63;8.47;;;;;;;15.21;58.34;99631.38;10409685;28;20224;-71
2022/11/09 16:57:07;;;;;;;8.53;6.73;;;;;;;13.89;61.83;99679.34;10415793;28;20228;-71
2022/11/09 17:02:09;;;;;;;13.23;7.37;;;;;;;15.08;59.29;99609.91;10411319;28;20224;-71
2022/11/09 17:07:11;;;;;;;6.77;5.90;;;;;;;15.35;59.75;99624.00;10414295;28;20242;-67
2022/11/09 17:12:13;;;;;;;7.67;6.23;;;;;;;15.68;57.78;99631.81;10408214;28;20274;-67
2022/11/09 17:17:15;;;;;;;10.10;6.60;;;;;;;15.08;59.13;99667.34;10388810;28;20229;-68
2022/11/09 17:22:23;;;;;;;8.90;7.87;;;;;;;15.57;57.91;99661.41;10383305;28;20261;-68
2022/11/09 17:27:24;;;;;;;9.00;6.77;;;;;;;14.54;59.88;99674.00;10364206;28;20241;-69
2022/11/09 17:32:27;;;;;;;10.13;7.20;;;;;;;15.26;58.11;99668.47;10414871;28;20263;-67
2022/11/09 17:37:28;;;;;;;11.00;9.67;;;;;;;15.81;57.44;99692.13;10412147;28;20326;-68
2022/11/09 17:42:33;;;;;;;11.90;9.07;;;;;;;14.79;59.02;99695.63;10434330;28;20240;-69
2022/11/09 17:47:34;;;;;;;12.50;10.10;;;;;;;15.50;57.96;99709.97;10413936;28;20228;-67
2022/11/09 17:52:36;;;;;;;10.23;8.77;;;;;;;15.28;58.05;99712.19;10413638;28;20244;-72
2022/11/09 17:57:38;;;;;;;9.30;8.30;;;;;;;16.01;56.68;99714.34;10414974;28;20225;-72
2022/11/09 18:02:39;;;;;;;10.17;9.03;;;;;;;16.64;55.47;99738.63;10407206;28;20232;-70
2022/11/09 18:07:41;;;;;;;14.00;10.00;;;;;;;15.04;57.89;99741.56;10407978;28;20724;-72
2022/11/09 18:12:43;;;;;;;10.10;8.83;;;;;;;16.16;56.25;99735.59;10410464;28;20232;-71
2022/11/09 18:17:44;;;;;;;10.77;9.00;;;;;;;14.75;58.65;99773.34;10411174;28;20673;-70
2022/11/09 18:22:49;;;;;;;12.17;9.67;;;;;;;15.57;57.88;99753.94;10408234;28;20704;-71
2022/11/09 18:27:51;;;;;;;9.80;8.23;;;;;;;15.13;58.63;99767.22;10403941;28;20414;-70
2022/11/09 18:32:53;;;;;;;8.60;7.70;;;;;;;15.16;57.57;99759.75;10405482;28;20236;-71
2022/11/09 18:37:55;;;;;;;8.33;6.93;;;;;;;15.16;57.60;99782.13;10408986;28;20236;-71
2022/11/09 18:42:59;;;;;;;7.83;6.77;;;;;;;15.51;56.32;99750.19;10410421;28;20236;-71
2022/11/09 18:48:00;;;;;;;10.57;8.63;;;;;;;15.38;56.50;99774.53;10412070;28;20235;-71
2022/11/09 18:53:02;;;;;;;12.43;10.93;;;;;;;14.89;57.67;99813.75;10409407;28;20216;-71
2022/11/09 18:58:03;;;;;;;11.13;9.93;;;;;;;15.36;57.29;99795.50;10413757;28;20242;-70
2022/11/09 19:03:05;;;;;;;11.43;10.23;;;;;;;15.47;57.00;99799.38;10403291;28;20235;-71
2022/11/09 19:08:07;;;;;;;11.40;10.20;;;;;;;15.14;56.73;99817.38;10407160;28;20784;-71
2022/11/09 19:13:09;;;;;;;13.67;12.30;;;;;;;15.14;57.81;99821.94;10408537;28;20275;-70
2022/11/09 19:18:10;;;;;;;13.20;11.80;;;;;;;14.98;57.86;99852.88;10409820;28;20638;-71
2022/11/09 19:23:12;;;;;;;13.40;11.23;;;;;;;14.95;57.15;99867.63;10382459;28;20235;-70
2022/11/09 19:28:14;;;;;;;13.33;10.70;;;;;;;16.19;55.03;99828.78;10414304;28;20730;-71
2022/11/09 19:33:15;;;;;;;12.77;9.10;;;;;;;15.55;55.92;99846.88;10416807;28;20299;-71
2022/11/09 19:38:17;;;;;;;14.57;10.20;;;;;;;15.36;55.33;99862.91;10412851;28;20235;-70
2022/11/09 19:43:22;;;;;;;17.17;13.37;;;;;;;15.26;55.77;99889.50;10414845;28;20236;-68
2022/11/09 19:48:24;;;;;;;14.93;11.20;;;;;;;15.91;54.22;99858.88;10418238;28;20717;-70
2022/11/09 19:53:29;;;;;;;33.00;22.33;;;;;;;14.91;55.47;99909.50;10418841;28;20247;-69
2022/11/09 19:58:30;;;;;;;12.03;10.83;;;;;;;15.97;54.31;99880.44;10418353;28;20260;-66
2022/11/09 20:03:32;;;;;;;25.03;18.00;;;;;;;16.31;53.79;99889.13;10418304;28;20240;-67
2022/11/09 20:08:36;;;;;;;18.70;13.53;;;;;;;16.05;54.66;99901.75;10417017;28;20236;-69
2022/11/09 20:13:39;;;;;;;36.40;25.97;;;;;;;16.36;53.97;99897.41;10419188;28;20247;-71
2022/11/09 20:18:41;;;;;;;20.73;18.40;;;;;;;15.26;56.06;99944.22;10415993;28;20232;-70
2022/11/09 20:23:44;;;;;;;24.43;18.20;;;;;;;16.29;54.06;99896.63;10410558;28;20674;-70
2022/11/09 20:28:45;;;;;;;26.80;19.97;;;;;;;14.80;56.61;99939.72;10414016;28;20740;-69
2022/11/09 20:33:50;;;;;;;16.63;13.40;;;;;;;16.19;54.77;99902.50;10416595;28;20231;-72
2022/11/09 20:38:53;;;;;;;21.57;17.87;;;;;;;15.83;55.24;99912.06;10414951;28;20446;-69
2022/11/09 20:43:55;;;;;;;21.67;15.50;;;;;;;15.91;54.60;99907.47;10413859;28;20235;-67
2022/11/09 20:48:56;;;;;;;25.60;19.57;;;;;;;16.11;54.66;99921.69;10415181;28;20890;-70
2022/11/09 20:53:59;;;;;;;26.73;22.33;;;;;;;16.20;54.69;99939.25;10415756;28;20246;-67
2022/11/09 20:59:07;;;;;;;17.23;13.93;;;;;;;14.58;58.16;100003.75;10412664;28;20302;-67
2022/11/09 21:04:09;;;;;;;18.07;15.63;;;;;;;16.42;53.38;99917.31;10415476;28;20791;-69
2022/11/09 23:49:03;;;;;;;4.77;3.50;;;;;;;14.52;53.19;100217.28;10437451;28;20232;-92
2022/11/09 23:54:04;;;;;;;9.47;3.90;;;;;;;15.11;52.59;100208.59;10435445;28;20787;-91
2022/11/09 23:59:06;;;;;;;13.67;4.40;;;;;;;14.80;52.52;100205.59;10444464;28;20232;-90
